Terminal Aerodrome Forecast
Issued by NWS Albany, NY

Home | Current Version | Previous Version | Text Only | Print | Product List | Glossary On
Versions: 1 2 3 4 5 6 7 8 9 10 11 12 13 14 15 16 17 18 19 20 21 22 23 24 25
000
FTUS41 KALY 251100 RRA
TAFPOU
TAF
KPOU 251141Z 2512/2612 02005KT P6SM SCT002
      TEMPO 2512/2514 3SM BR BKN002
     FM251400 VRB03KT P6SM SKC
     FM251600 26007KT P6SM SCT035
     FM252000 24006KT P6SM BKN040 BKN080
     FM252300 23006KT P6SM BKN040
     FM260600 26008KT P6SM BKN035=

USA.gov is the U.S. government's official web portal to all federal, state and local government web resources and services.